Time;durP1;ratioP1;P1;durP2;ratioP2;P2;SDS_P1;SDS_P2;PMS_P1;PMS_P2;Temp;Humidity;BMP_temperature;BMP_pressure;BME280_temperature;BME280_humidity;BME280_pressure;Samples;Min_cycle;Max_cycle;Signal;HPM_P1;HPM_P2
2021/09/21 00:01:45;;;;;;;11.60;6.33;;;11.00;99.90;;;;;;4129636;28;20214;-77
2021/09/21 00:03:47;;;;;;;11.40;6.63;;;11.00;99.90;;;;;;4129408;28;20281;-76
2021/09/21 00:05:48;;;;;;;12.67;6.60;;;11.00;99.90;;;;;;4129659;28;20219;-77
2021/09/21 00:07:50;;;;;;;9.93;6.73;;;11.00;99.90;;;;;;4128340;28;20216;-77
2021/09/21 00:09:52;;;;;;;12.27;6.80;;;11.00;99.90;;;;;;4129396;28;20222;-77
2021/09/21 00:11:54;;;;;;;11.63;6.53;;;11.00;99.90;;;;;;4129435;28;20209;-76
2021/09/21 00:13:57;;;;;;;12.20;6.83;;;11.00;99.90;;;;;;4128449;28;20684;-77
2021/09/21 00:15:59;;;;;;;11.20;6.93;;;11.00;99.90;;;;;;4129859;28;20294;-77
2021/09/21 00:18:01;;;;;;;11.20;6.57;;;10.90;99.90;;;;;;4130124;28;20225;-77
2021/09/21 00:20:04;;;;;;;11.27;6.80;;;11.00;99.90;;;;;;4128659;28;20213;-77
2021/09/21 00:22:06;;;;;;;13.33;7.70;;;10.90;99.90;;;;;;4128430;28;20213;-76
2021/09/21 00:24:08;;;;;;;12.40;6.77;;;10.90;99.90;;;;;;4129374;28;20221;-76
2021/09/21 00:26:10;;;;;;;9.90;6.60;;;10.90;99.90;;;;;;4129061;28;20644;-77
2021/09/21 00:28:12;;;;;;;10.73;6.20;;;10.90;99.90;;;;;;4130460;28;20224;-76
2021/09/21 00:30:16;;;;;;;13.10;6.93;;;10.90;99.90;;;;;;4129376;28;20273;-76
2021/09/21 00:32:24;;;;;;;10.93;6.80;;;10.90;99.90;;;;;;4126552;28;20217;-77
2021/09/21 00:34:28;;;;;;;11.03;6.53;;;10.90;99.90;;;;;;4123505;28;20675;-76
2021/09/21 00:36:30;;;;;;;11.67;7.13;;;10.80;99.90;;;;;;4126449;28;20214;-77
2021/09/21 00:38:31;;;;;;;11.70;7.17;;;10.90;99.90;;;;;;4128891;28;20261;-76
2021/09/21 00:40:33;;;;;;;10.57;6.73;;;10.80;99.90;;;;;;4125699;28;20565;-77
2021/09/21 00:42:35;;;;;;;11.00;6.83;;;10.80;99.90;;;;;;4129728;28;20635;-76
2021/09/21 00:44:38;;;;;;;11.83;6.87;;;10.80;99.90;;;;;;4129524;28;20209;-76
2021/09/21 00:46:41;;;;;;;12.70;6.63;;;10.80;99.90;;;;;;4127153;28;20222;-77
2021/09/21 00:48:43;;;;;;;11.27;6.40;;;10.80;99.90;;;;;;4128647;28;20610;-77
2021/09/21 00:50:44;;;;;;;10.37;6.33;;;10.80;99.90;;;;;;4131239;28;20206;-77
2021/09/21 00:52:47;;;;;;;11.87;6.43;;;10.80;99.90;;;;;;4132434;28;20640;-76
2021/09/21 00:54:49;;;;;;;10.43;6.80;;;10.80;99.90;;;;;;4132349;28;20702;-76
2021/09/21 00:56:51;;;;;;;11.80;6.77;;;10.80;99.90;;;;;;4130289;28;20626;-77
2021/09/21 00:58:53;;;;;;;9.93;6.23;;;10.70;99.90;;;;;;4132668;28;20588;-76
2021/09/21 01:00:54;;;;;;;11.27;6.70;;;10.80;99.90;;;;;;4131695;28;20216;-76
2021/09/21 01:02:57;;;;;;;12.60;7.37;;;10.70;99.90;;;;;;4131991;28;20292;-76
2021/09/21 01:04:59;;;;;;;11.13;6.70;;;10.70;99.90;;;;;;4130604;28;20215;-76
2021/09/21 01:07:01;;;;;;;10.53;6.63;;;10.70;99.90;;;;;;4131964;28;20267;-77
2021/09/21 01:09:03;;;;;;;10.83;6.40;;;10.70;99.90;;;;;;4132638;28;20722;-76
2021/09/21 01:11:05;;;;;;;10.90;6.43;;;10.70;99.90;;;;;;4131825;28;20690;-76
2021/09/21 01:13:07;;;;;;;11.33;6.60;;;10.70;99.90;;;;;;4125660;28;20229;-76
2021/09/21 01:15:10;;;;;;;11.80;6.70;;;10.70;99.90;;;;;;4132420;28;20231;-76
2021/09/21 01:17:11;;;;;;;8.90;5.80;;;10.70;99.90;;;;;;4130681;28;20686;-77
2021/09/21 01:19:15;;;;;;;9.80;6.43;;;10.70;99.90;;;;;;4130747;28;20362;-77
2021/09/21 01:21:17;;;;;;;10.13;6.30;;;10.70;99.90;;;;;;4131807;28;20214;-76
2021/09/21 01:23:20;;;;;;;9.10;6.47;;;10.70;99.90;;;;;;4131418;28;20596;-77
2021/09/21 01:25:23;;;;;;;10.63;6.93;;;10.70;99.90;;;;;;4131775;28;20251;-76
2021/09/21 01:27:24;;;;;;;14.97;6.70;;;10.70;99.90;;;;;;4131424;28;20210;-76
2021/09/21 01:29:26;;;;;;;10.97;6.40;;;10.70;99.90;;;;;;4131749;28;20210;-76
2021/09/21 01:31:28;;;;;;;10.67;6.77;;;10.60;99.90;;;;;;4130481;28;20255;-77
2021/09/21 01:33:29;;;;;;;9.83;6.53;;;10.70;99.90;;;;;;4129523;28;20744;-77
2021/09/21 01:35:31;;;;;;;11.07;6.83;;;10.70;99.90;;;;;;4132662;28;20228;-76
2021/09/21 01:37:33;;;;;;;15.33;7.27;;;10.70;99.90;;;;;;4129464;28;20586;-76
2021/09/21 01:39:36;;;;;;;10.33;6.63;;;10.70;99.90;;;;;;4130589;28;20217;-77
2021/09/21 01:41:38;;;;;;;11.60;6.83;;;10.60;99.90;;;;;;4130529;28;20214;-77
2021/09/21 01:43:42;;;;;;;11.80;6.80;;;10.70;99.90;;;;;;4129444;28;20241;-76
2021/09/21 01:45:44;;;;;;;11.07;6.77;;;10.60;99.90;;;;;;4131241;28;20236;-76
2021/09/21 01:47:48;;;;;;;12.03;7.30;;;10.60;99.90;;;;;;4125852;28;20205;-76
2021/09/21 01:50:03;;;;;;;12.37;7.10;;;10.60;99.90;;;;;;4124118;28;20223;-76
2021/09/21 01:52:11;;;;;;;10.33;6.60;;;10.50;99.90;;;;;;4125952;28;20252;-76
2021/09/21 01:54:17;;;;;;;11.07;6.20;;;10.50;99.90;;;;;;4129501;28;20230;-76
2021/09/21 01:58:48;;;;;;;11.30;6.23;;;10.50;99.90;;;;;;4127461;28;20827;-76
2021/09/21 02:00:49;;;;;;;9.83;6.20;;;10.50;99.90;;;;;;4123997;28;20211;-76
2021/09/21 02:02:51;;;;;;;12.73;6.87;;;10.50;99.90;;;;;;4126269;28;20216;-77
2021/09/21 02:04:53;;;;;;;11.00;6.23;;;10.50;99.90;;;;;;4124081;28;20210;-77
2021/09/21 02:06:55;;;;;;;10.90;6.50;;;10.50;99.90;;;;;;4128450;28;20643;-77
2021/09/21 02:08:57;;;;;;;14.13;6.87;;;10.50;99.90;;;;;;4127087;28;20233;-77
2021/09/21 02:10:59;;;;;;;12.30;6.77;;;10.40;99.90;;;;;;4123642;28;20209;-77
2021/09/21 02:13:02;;;;;;;10.30;6.57;;;10.50;99.90;;;;;;4126481;28;20228;-77
2021/09/21 02:15:05;;;;;;;9.10;6.10;;;10.40;99.90;;;;;;4127409;28;20228;-77
2021/09/21 02:17:06;;;;;;;11.10;6.37;;;10.50;99.90;;;;;;4129428;28;20209;-76
2021/09/21 02:19:08;;;;;;;11.90;6.60;;;10.50;99.90;;;;;;4125856;28;20628;-76
2021/09/21 02:21:10;;;;;;;9.53;6.00;;;10.40;99.90;;;;;;4130279;28;20213;-76
2021/09/21 02:23:12;;;;;;;11.93;6.47;;;10.40;99.90;;;;;;4128446;28;20233;-76
2021/09/21 02:25:14;;;;;;;9.10;6.17;;;10.40;99.90;;;;;;4125321;28;20579;-76
2021/09/21 02:27:15;;;;;;;11.23;6.67;;;10.40;99.90;;;;;;4128798;28;20214;-77
2021/09/21 02:29:18;;;;;;;11.03;6.63;;;10.40;99.90;;;;;;4127452;28;20216;-77
2021/09/21 02:31:20;;;;;;;10.60;6.20;;;10.40;99.90;;;;;;4126217;28;20672;-77
2021/09/21 02:33:22;;;;;;;10.87;6.73;;;10.40;99.90;;;;;;4122272;28;20691;-77
2021/09/21 02:35:25;;;;;;;10.93;6.80;;;10.40;99.90;;;;;;4127556;28;20690;-77
2021/09/21 02:37:27;;;;;;;11.27;6.30;;;10.40;99.90;;;;;;4128263;28;20217;-77
2021/09/21 02:39:28;;;;;;;11.17;6.27;;;10.40;99.90;;;;;;4126307;28;20265;-77
2021/09/21 02:41:30;;;;;;;9.27;6.20;;;10.40;99.90;;;;;;4125969;28;20217;-77
2021/09/21 02:43:35;;;;;;;9.60;6.10;;;10.30;99.90;;;;;;4127830;28;20252;-77
2021/09/21 02:45:38;;;;;;;10.23;6.50;;;10.40;99.90;;;;;;4131684;28;20573;-76
2021/09/21 02:47:40;;;;;;;10.50;6.30;;;10.40;99.90;;;;;;4130463;28;20662;-77
2021/09/21 02:49:41;;;;;;;10.13;6.07;;;10.40;99.90;;;;;;4130651;28;20256;-76
2021/09/21 02:51:43;;;;;;;11.07;6.40;;;10.40;99.90;;;;;;4129700;28;20517;-77
2021/09/21 02:53:45;;;;;;;9.87;6.30;;;10.40;99.90;;;;;;4125047;28;20238;-77
2021/09/21 02:55:50;;;;;;;11.10;6.90;;;10.40;99.90;;;;;;4130243;28;20221;-77
2021/09/21 02:57:51;;;;;;;9.70;6.50;;;10.40;99.90;;;;;;4130054;28;20636;-76
2021/09/21 02:59:53;;;;;;;11.37;6.00;;;10.40;99.90;;;;;;4127072;28;20209;-76
2021/09/21 03:01:56;;;;;;;10.00;6.53;;;10.40;99.90;;;;;;4130659;28;20198;-76
2021/09/21 03:04:04;;;;;;;9.77;6.70;;;10.40;99.90;;;;;;4125698;28;20224;-76
2021/09/21 03:06:10;;;;;;;10.57;6.53;;;10.40;99.90;;;;;;4128125;28;20292;-76
2021/09/21 03:08:14;;;;;;;12.33;7.07;;;10.40;99.90;;;;;;4124873;28;20283;-77
2021/09/21 03:13:00;;;;;;;10.67;6.13;;;10.30;99.90;;;;;;4116739;28;20707;-76
2021/09/21 03:17:26;;;;;;;12.00;6.40;;;10.40;99.90;;;;;;4124373;28;20296;-77
2021/09/21 03:19:28;;;;;;;9.60;6.47;;;10.30;99.90;;;;;;4129587;28;20576;-76
2021/09/21 03:21:30;;;;;;;10.37;6.23;;;10.30;99.90;;;;;;4127644;28;20601;-76
2021/09/21 03:23:32;;;;;;;11.73;6.33;;;10.40;99.90;;;;;;4130594;28;20229;-77
2021/09/21 03:25:34;;;;;;;9.00;5.90;;;10.40;99.90;;;;;;4129389;28;20205;-77
2021/09/21 03:27:36;;;;;;;9.40;5.80;;;10.40;99.90;;;;;;4127768;28;20209;-76
2021/09/21 03:29:37;;;;;;;10.47;6.30;;;10.40;99.90;;;;;;4122019;28;20212;-76
2021/09/21 03:31:39;;;;;;;10.37;5.60;;;10.40;99.90;;;;;;4129771;28;20206;-77
2021/09/21 03:33:42;;;;;;;9.33;6.17;;;10.40;99.90;;;;;;4129614;28;20237;-76
2021/09/21 03:35:45;;;;;;;9.60;6.40;;;10.40;99.90;;;;;;4124299;28;20236;-77
2021/09/21 03:37:46;;;;;;;10.07;5.77;;;10.40;99.90;;;;;;4126243;28;20216;-77
2021/09/21 03:39:48;;;;;;;9.43;5.90;;;10.40;99.90;;;;;;4128783;28;20239;-77
2021/09/21 03:41:50;;;;;;;8.80;5.70;;;10.40;99.90;;;;;;4128016;28;20667;-76
2021/09/21 03:43:52;;;;;;;11.00;5.90;;;10.40;99.90;;;;;;4158810;23;20250;-79
2021/09/21 03:45:54;;;;;;;11.30;6.63;;;10.40;99.90;;;;;;4146442;28;20212;-79
2021/09/21 03:47:56;;;;;;;11.30;6.03;;;10.40;99.90;;;;;;4145551;28;20219;-79
2021/09/21 03:49:59;;;;;;;12.03;6.33;;;10.40;99.90;;;;;;4146266;28;20212;-79
2021/09/21 03:52:01;;;;;;;10.87;6.00;;;10.40;99.90;;;;;;4142984;28;20211;-79
2021/09/21 03:54:04;;;;;;;8.17;5.67;;;10.40;99.90;;;;;;4144732;28;20696;-79
2021/09/21 03:56:06;;;;;;;10.13;5.90;;;10.30;99.90;;;;;;4141575;28;20243;-79
2021/09/21 03:58:08;;;;;;;10.67;5.43;;;10.40;99.90;;;;;;4145207;28;20216;-79
2021/09/21 04:00:11;;;;;;;9.90;5.97;;;10.30;99.90;;;;;;4144942;28;20358;-79
2021/09/21 04:02:13;;;;;;;10.57;6.27;;;10.30;99.90;;;;;;4145891;28;20221;-78
2021/09/21 04:04:14;;;;;;;11.20;5.77;;;10.30;99.90;;;;;;4144174;28;20227;-79
2021/09/21 04:06:17;;;;;;;9.57;5.47;;;10.30;99.90;;;;;;4140220;28;20224;-78
2021/09/21 04:08:19;;;;;;;10.13;5.83;;;10.30;99.90;;;;;;4145727;28;20221;-79
2021/09/21 04:10:22;;;;;;;9.77;6.00;;;10.30;99.90;;;;;;4145156;28;20212;-78
2021/09/21 04:12:24;;;;;;;8.17;5.47;;;10.30;99.90;;;;;;4146805;28;20572;-78
2021/09/21 04:14:25;;;;;;;8.97;5.83;;;10.30;99.90;;;;;;4147161;28;20271;-79
2021/09/21 04:16:29;;;;;;;7.83;4.97;;;10.30;99.90;;;;;;4146949;28;20228;-78
2021/09/21 04:18:30;;;;;;;9.50;5.50;;;10.30;99.90;;;;;;4143770;28;20221;-78
2021/09/21 04:20:32;;;;;;;11.57;5.53;;;10.60;99.90;;;;;;4148075;28;20219;-78
2021/09/21 04:22:36;;;;;;;10.70;6.10;;;10.30;99.90;;;;;;4151625;28;20200;-78
2021/09/21 04:24:38;;;;;;;9.00;5.80;;;10.30;99.90;;;;;;4160995;28;20311;-78
2021/09/21 04:26:40;;;;;;;8.90;5.30;;;10.30;99.90;;;;;;4165319;28;20204;-78
2021/09/21 04:28:42;;;;;;;10.30;5.63;;;10.30;99.90;;;;;;4163557;28;20322;-78
2021/09/21 04:30:44;;;;;;;7.53;5.37;;;10.30;99.90;;;;;;4163825;28;20271;-78
2021/09/21 04:32:46;;;;;;;9.73;5.77;;;10.30;99.90;;;;;;4165704;28;20219;-79
2021/09/21 04:34:49;;;;;;;9.23;5.37;;;10.30;99.90;;;;;;4152009;28;20236;-79
2021/09/21 04:36:51;;;;;;;10.73;5.43;;;10.30;99.90;;;;;;4148113;28;20306;-79
2021/09/21 04:38:54;;;;;;;9.30;5.13;;;10.30;99.90;;;;;;4146408;28;20219;-78
2021/09/21 04:40:56;;;;;;;10.90;5.53;;;10.30;99.90;;;;;;4149454;28;20259;-79
2021/09/21 04:42:57;;;;;;;10.23;5.77;;;10.40;99.90;;;;;;4146669;28;20209;-78
2021/09/21 04:44:59;;;;;;;10.23;5.53;;;10.30;99.90;;;;;;4149088;28;20665;-78
2021/09/21 04:47:01;;;;;;;8.03;6.00;;;10.30;99.90;;;;;;4146893;28;20212;-79
2021/09/21 04:49:05;;;;;;;11.33;6.10;;;10.30;99.90;;;;;;4153856;28;20307;-79
2021/09/21 04:51:06;;;;;;;11.63;5.97;;;10.30;99.90;;;;;;4155267;28;20215;-79
2021/09/21 04:53:08;;;;;;;9.00;5.40;;;10.30;99.90;;;;;;4156113;28;20635;-79
2021/09/21 04:55:11;;;;;;;10.57;5.37;;;10.20;99.90;;;;;;4151359;28;20238;-79
2021/09/21 04:57:13;;;;;;;11.33;5.80;;;10.20;99.90;;;;;;4153504;28;20208;-79
2021/09/21 04:59:15;;;;;;;7.87;5.70;;;10.20;99.90;;;;;;4156144;28;20205;-79
2021/09/21 05:01:17;;;;;;;11.27;5.50;;;10.20;99.90;;;;;;4157004;28;20315;-80
2021/09/21 05:03:19;;;;;;;7.97;5.07;;;10.30;99.90;;;;;;4154767;28;20275;-79
2021/09/21 05:05:22;;;;;;;10.03;5.20;;;10.20;99.90;;;;;;4152470;28;20262;-79
2021/09/21 05:07:24;;;;;;;10.70;5.63;;;10.20;99.90;;;;;;4153124;28;20197;-79
2021/09/21 05:09:26;;;;;;;11.17;5.47;;;9.80;99.90;;;;;;4154544;28;20208;-79
2021/09/21 05:11:29;;;;;;;12.63;5.97;;;10.20;99.90;;;;;;4148252;28;20205;-80
2021/09/21 05:13:31;;;;;;;10.93;5.63;;;10.20;99.90;;;;;;4149608;28;20227;-80
2021/09/21 05:15:32;;;;;;;9.33;5.23;;;10.20;99.90;;;;;;4155874;28;20227;-80
2021/09/21 05:17:34;;;;;;;11.27;5.90;;;10.20;99.90;;;;;;4156229;28;20756;-79
2021/09/21 05:19:36;;;;;;;12.20;5.53;;;10.20;99.90;;;;;;4152675;28;20277;-80
2021/09/21 05:21:38;;;;;;;7.50;5.13;;;10.20;99.90;;;;;;4148813;28;20215;-80
2021/09/21 05:23:39;;;;;;;13.50;6.00;;;10.20;99.90;;;;;;4143496;28;20243;-79
2021/09/21 05:25:41;;;;;;;9.77;5.63;;;10.20;99.90;;;;;;4147787;28;20217;-80
2021/09/21 05:27:44;;;;;;;10.33;5.80;;;10.30;99.90;;;;;;4144852;28;20873;-79
2021/09/21 05:29:46;;;;;;;11.20;6.30;;;10.20;99.90;;;;;;4141147;28;20244;-80
2021/09/21 05:31:48;;;;;;;8.87;5.63;;;10.30;99.90;;;;;;4141709;28;20216;-79
2021/09/21 05:33:50;;;;;;;9.77;5.70;;;10.20;99.90;;;;;;4147198;28;20823;-81
2021/09/21 05:35:52;;;;;;;10.37;5.80;;;10.30;99.90;;;;;;4148671;28;20727;-80
2021/09/21 05:37:53;;;;;;;9.10;5.60;;;10.30;99.90;;;;;;4145942;28;20212;-79
2021/09/21 05:39:55;;;;;;;10.60;6.20;;;10.30;99.90;;;;;;4141029;28;20208;-79
2021/09/21 05:41:57;;;;;;;9.57;6.37;;;10.30;99.90;;;;;;4138947;28;20267;-79
2021/09/21 05:44:00;;;;;;;8.97;5.33;;;10.30;99.90;;;;;;4143850;28;20301;-80
2021/09/21 05:46:01;;;;;;;9.53;5.60;;;10.30;99.90;;;;;;4140089;28;20267;-79
2021/09/21 05:48:03;;;;;;;10.40;5.20;;;10.30;99.90;;;;;;4133881;28;20212;-80
2021/09/21 05:50:06;;;;;;;9.27;5.53;;;10.40;99.90;;;;;;4136533;28;20224;-81
2021/09/21 05:52:08;;;;;;;8.93;4.93;;;10.40;99.90;;;;;;4136401;28;20209;-76
2021/09/21 05:54:10;;;;;;;7.67;5.43;;;10.40;99.90;;;;;;4131347;28;20236;-79
2021/09/21 05:56:12;;;;;;;8.70;5.53;;;10.40;99.90;;;;;;4143959;28;20225;-79
2021/09/21 05:58:14;;;;;;;9.23;6.23;;;10.40;99.90;;;;;;4134199;28;20211;-80
2021/09/21 06:00:19;;;;;;;8.60;5.40;;;10.70;99.90;;;;;;4137442;28;20255;-80
2021/09/21 06:02:23;;;;;;;8.73;5.27;;;10.50;99.90;;;;;;4140755;28;20237;-80
2021/09/21 06:04:24;;;;;;;9.23;5.77;;;10.50;99.90;;;;;;4141872;28;20237;-80
2021/09/21 06:06:26;;;;;;;8.93;5.47;;;10.60;99.90;;;;;;4141131;28;20283;-79
2021/09/21 06:08:28;;;;;;;8.53;5.50;;;10.60;99.90;;;;;;4143202;28;20657;-81
2021/09/21 06:10:29;;;;;;;8.80;5.47;;;10.60;99.90;;;;;;4139453;28;20781;-79
2021/09/21 06:12:31;;;;;;;9.67;5.47;;;10.60;99.90;;;;;;4143527;28;20244;-80
2021/09/21 06:14:33;;;;;;;11.37;5.43;;;10.70;99.90;;;;;;4143519;28;20241;-81
2021/09/21 06:16:36;;;;;;;10.57;5.47;;;10.70;99.90;;;;;;4143524;28;20235;-79
2021/09/21 06:18:38;;;;;;;12.00;5.60;;;10.70;99.90;;;;;;4139126;28;20217;-80
2021/09/21 06:20:40;;;;;;;9.47;5.73;;;10.70;99.90;;;;;;4139619;28;20228;-79
2021/09/21 06:22:44;;;;;;;9.30;5.57;;;10.80;99.90;;;;;;4140939;28;20237;-81
2021/09/21 06:24:46;;;;;;;9.03;5.50;;;10.80;99.90;;;;;;4141025;28;20279;-80
2021/09/21 06:26:48;;;;;;;8.97;5.27;;;10.80;99.90;;;;;;4141917;28;20299;-80
2021/09/21 06:28:49;;;;;;;8.90;5.90;;;10.80;99.90;;;;;;4143302;28;20217;-79
2021/09/21 06:30:51;;;;;;;8.13;5.43;;;10.90;99.90;;;;;;4137435;28;20732;-79
2021/09/21 06:32:54;;;;;;;10.63;6.40;;;10.90;99.90;;;;;;4142040;28;20222;-79
2021/09/21 06:34:56;;;;;;;10.03;5.97;;;10.90;99.90;;;;;;4142155;28;20275;-81
2021/09/21 06:36:59;;;;;;;12.40;7.07;;;10.90;99.90;;;;;;4142701;28;20237;-79
2021/09/21 06:39:00;;;;;;;10.77;6.07;;;10.90;99.90;;;;;;4141767;28;20221;-79
2021/09/21 06:41:02;;;;;;;8.60;6.07;;;11.00;99.90;;;;;;4142223;28;20220;-81
2021/09/21 06:43:04;;;;;;;9.00;5.83;;;11.00;99.90;;;;;;4141549;28;20212;-79
2021/09/21 06:45:08;;;;;;;8.63;5.80;;;11.00;99.90;;;;;;4144104;28;20264;-79
2021/09/21 06:47:09;;;;;;;11.73;6.10;;;11.10;99.90;;;;;;4143608;28;20262;-80
2021/09/21 06:49:12;;;;;;;11.20;6.20;;;11.10;99.90;;;;;;4142431;28;20202;-81
2021/09/21 06:51:14;;;;;;;10.97;6.00;;;11.10;99.90;;;;;;4142547;28;20205;-79
2021/09/21 06:53:16;;;;;;;11.70;6.20;;;11.20;99.90;;;;;;4146142;28;20232;-80
2021/09/21 06:55:17;;;;;;;9.63;5.90;;;11.20;99.90;;;;;;4153134;28;20261;-80
2021/09/21 06:57:19;;;;;;;12.13;5.87;;;11.30;99.90;;;;;;4156711;28;20228;-81
2021/09/21 06:59:21;;;;;;;9.30;6.00;;;11.30;99.90;;;;;;4158383;28;20209;-81
2021/09/21 07:01:25;;;;;;;12.73;6.00;;;11.30;99.90;;;;;;4159122;28;20377;-81
2021/09/21 07:03:26;;;;;;;10.57;5.80;;;11.40;99.90;;;;;;4159816;28;20234;-81
2021/09/21 07:05:29;;;;;;;11.77;6.60;;;11.40;99.90;;;;;;4143643;28;20216;-79
2021/09/21 07:07:31;;;;;;;9.90;5.83;;;11.40;99.90;;;;;;4143070;28;20605;-80
2021/09/21 07:09:33;;;;;;;8.43;5.77;;;11.50;99.90;;;;;;4140935;28;20378;-80
2021/09/21 07:11:35;;;;;;;10.80;6.00;;;11.50;99.90;;;;;;4141878;28;20688;-79
2021/09/21 07:13:36;;;;;;;10.17;6.27;;;11.60;99.90;;;;;;4142442;28;20238;-79
2021/09/21 07:15:38;;;;;;;10.73;6.00;;;11.60;99.90;;;;;;4143134;28;20731;-80
2021/09/21 07:17:40;;;;;;;11.13;6.70;;;11.70;99.90;;;;;;4141850;28;20246;-80
2021/09/21 07:19:41;;;;;;;11.37;6.37;;;11.70;99.90;;;;;;4139446;28;20214;-81
2021/09/21 07:21:47;;;;;;;12.20;6.90;;;11.70;99.90;;;;;;4139169;28;20273;-80
2021/09/21 07:23:49;;;;;;;12.83;6.97;;;11.80;99.90;;;;;;4139580;28;20741;-80
2021/09/21 07:25:50;;;;;;;12.93;7.07;;;11.80;99.90;;;;;;4142749;28;20216;-80
2021/09/21 07:27:53;;;;;;;12.60;7.27;;;11.80;99.90;;;;;;4141442;28;20214;-80
2021/09/21 07:29:54;;;;;;;12.67;6.73;;;11.90;99.90;;;;;;4141386;28;20222;-80
2021/09/21 07:31:56;;;;;;;9.70;6.33;;;12.00;99.90;;;;;;4142178;28;20262;-80
2021/09/21 07:33:58;;;;;;;12.70;6.70;;;11.90;99.90;;;;;;4142459;28;20729;-80
2021/09/21 07:36:00;;;;;;;9.13;6.20;;;12.00;99.90;;;;;;4139930;28;20665;-79
2021/09/21 07:38:03;;;;;;;13.13;7.13;;;12.10;99.90;;;;;;4142106;28;20235;-80
2021/09/21 07:40:07;;;;;;;11.17;6.20;;;12.10;99.90;;;;;;4139726;28;20208;-80
2021/09/21 07:42:09;;;;;;;10.97;6.20;;;12.20;99.90;;;;;;4142105;28;20211;-80
2021/09/21 07:44:10;;;;;;;10.17;6.13;;;12.20;99.90;;;;;;4139244;28;20257;-80
2021/09/21 07:46:13;;;;;;;10.50;6.53;;;12.30;99.90;;;;;;4141246;28;20241;-79
2021/09/21 07:48:18;;;;;;;10.13;5.93;;;12.40;99.90;;;;;;4137194;28;20274;-80
2021/09/21 07:50:20;;;;;;;12.63;6.20;;;12.40;99.90;;;;;;4137653;28;20313;-80
2021/09/21 07:52:21;;;;;;;12.00;6.43;;;12.50;99.90;;;;;;4140033;28;20925;-80
2021/09/21 07:54:25;;;;;;;12.03;5.97;;;12.60;99.90;;;;;;4140267;28;20239;-80
2021/09/21 07:56:26;;;;;;;9.17;5.93;;;12.60;99.90;;;;;;4139063;28;20215;-79
2021/09/21 07:58:28;;;;;;;10.60;5.73;;;12.70;99.90;;;;;;4137868;28;20211;-80
2021/09/21 08:00:30;;;;;;;10.47;6.17;;;12.60;99.90;;;;;;4135445;28;20763;-79
2021/09/21 08:02:32;;;;;;;9.07;5.97;;;12.80;99.90;;;;;;4137195;28;20216;-79
2021/09/21 08:04:34;;;;;;;13.27;6.13;;;12.80;99.90;;;;;;4140385;28;20762;-80
2021/09/21 08:06:35;;;;;;;8.47;5.53;;;12.90;99.90;;;;;;4142785;28;20266;-80
2021/09/21 08:08:39;;;;;;;9.40;6.37;;;12.90;99.90;;;;;;4143481;28;20738;-80
2021/09/21 08:10:42;;;;;;;14.00;6.43;;;13.10;99.90;;;;;;4144531;28;20272;-80
2021/09/21 08:12:44;;;;;;;9.13;6.23;;;13.00;99.90;;;;;;4136767;28;20754;-79
2021/09/21 08:14:49;;;;;;;11.13;6.60;;;13.10;99.90;;;;;;4143697;28;20266;-79
2021/09/21 08:16:51;;;;;;;12.30;6.27;;;13.10;99.90;;;;;;4145091;28;20285;-80
2021/09/21 08:18:53;;;;;;;9.73;6.07;;;13.10;99.90;;;;;;4143937;28;20216;-80
2021/09/21 08:20:55;;;;;;;13.10;6.60;;;13.20;99.90;;;;;;4142835;28;20239;-79
2021/09/21 08:22:57;;;;;;;12.47;6.50;;;13.20;99.90;;;;;;4143298;28;20215;-79
2021/09/21 08:25:00;;;;;;;9.97;6.07;;;13.30;99.90;;;;;;4143941;28;20266;-80
2021/09/21 08:27:04;;;;;;;10.53;6.50;;;13.30;99.90;;;;;;4142890;28;20262;-79
2021/09/21 08:29:05;;;;;;;10.97;6.10;;;13.40;99.90;;;;;;4142075;28;20483;-80
2021/09/21 08:31:07;;;;;;;12.60;6.20;;;13.40;99.90;;;;;;4142940;28;20215;-79
2021/09/21 08:33:09;;;;;;;11.07;6.37;;;13.40;99.90;;;;;;4145250;28;20212;-79
2021/09/21 08:35:11;;;;;;;10.57;5.77;;;13.40;99.90;;;;;;4143963;28;20224;-80
2021/09/21 08:37:13;;;;;;;11.53;5.80;;;13.50;99.90;;;;;;4142324;28;20720;-79
2021/09/21 08:39:14;;;;;;;10.40;5.93;;;13.50;99.90;;;;;;4144250;28;20646;-80
2021/09/21 08:41:16;;;;;;;8.90;5.60;;;13.60;99.90;;;;;;4144921;28;20204;-80
2021/09/21 08:43:19;;;;;;;8.87;5.77;;;13.50;99.90;;;;;;4144970;28;20228;-78
2021/09/21 08:45:21;;;;;;;8.20;5.60;;;13.60;99.90;;;;;;4143509;28;20232;-79
2021/09/21 08:47:23;;;;;;;9.23;5.67;;;13.60;99.90;;;;;;4144861;28;20208;-79
2021/09/21 08:49:25;;;;;;;9.13;5.63;;;13.70;99.90;;;;;;4138375;28;20204;-80
2021/09/21 08:51:27;;;;;;;8.23;4.83;;;13.80;99.90;;;;;;4142393;28;20242;-79
2021/09/21 08:53:28;;;;;;;9.77;5.13;;;13.80;99.90;;;;;;4145860;28;20293;-79
2021/09/21 08:55:30;;;;;;;7.33;5.10;;;13.80;99.90;;;;;;4138909;28;20222;-79
2021/09/21 08:57:32;;;;;;;7.67;4.80;;;13.90;99.90;;;;;;4143362;28;20732;-79
2021/09/21 08:59:37;;;;;;;7.83;4.97;;;13.90;99.90;;;;;;4145090;28;20657;-79
2021/09/21 09:01:41;;;;;;;8.13;5.10;;;14.00;99.90;;;;;;4143714;28;20348;-79
2021/09/21 09:03:53;;;;;;;9.37;5.23;;;14.10;99.90;;;;;;4146356;28;20232;-79
2021/09/21 09:05:55;;;;;;;8.13;4.60;;;14.20;99.90;;;;;;4145617;28;20204;-79
2021/09/21 09:07:56;;;;;;;5.77;4.33;;;14.20;99.90;;;;;;4144693;28;20211;-79
2021/09/21 09:10:04;;;;;;;7.57;4.90;;;14.30;99.90;;;;;;4139515;28;20225;-79
2021/09/21 09:12:07;;;;;;;7.33;4.20;;;14.30;99.90;;;;;;4144620;28;20249;-79
2021/09/21 09:14:18;;;;;;;6.80;3.60;;;14.30;99.90;;;;;;4144760;28;20296;-79
2021/09/21 09:16:23;;;;;;;7.03;4.30;;;14.30;99.90;;;;;;4144585;28;20214;-79
2021/09/21 09:18:26;;;;;;;11.00;4.47;;;14.40;99.90;;;;;;4144372;28;20698;-79
2021/09/21 09:20:35;;;;;;;6.50;4.23;;;14.50;99.90;;;;;;4142609;28;20210;-79
2021/09/21 09:22:37;;;;;;;6.87;4.30;;;14.60;99.90;;;;;;4144897;28;20278;-79
2021/09/21 09:24:46;;;;;;;7.73;4.17;;;14.70;99.90;;;;;;4148823;28;20256;-80
2021/09/21 09:26:49;;;;;;;6.83;4.17;;;14.80;99.90;;;;;;4151621;28;20210;-79
2021/09/21 09:28:53;;;;;;;6.53;4.30;;;14.90;99.90;;;;;;4150342;28;20236;-79
2021/09/21 09:30:56;;;;;;;10.73;4.53;;;15.00;99.90;;;;;;4152282;28;20241;-80
2021/09/21 09:33:00;;;;;;;8.23;4.70;;;15.10;99.90;;;;;;4148380;28;20277;-79
2021/09/21 09:35:02;;;;;;;9.63;4.33;;;15.20;99.90;;;;;;4143210;28;20759;-80
2021/09/21 09:37:05;;;;;;;8.17;4.83;;;15.30;99.90;;;;;;4142208;28;20216;-80
2021/09/21 09:39:07;;;;;;;5.93;4.40;;;15.50;99.90;;;;;;4139577;28;20211;-79
2021/09/21 09:41:13;;;;;;;5.77;4.43;;;15.50;99.90;;;;;;4144068;28;20677;-79
2021/09/21 09:43:23;;;;;;;6.73;4.53;;;15.50;99.90;;;;;;4142244;28;20207;-79
2021/09/21 09:45:29;;;;;;;8.73;4.60;;;15.50;99.90;;;;;;4143545;28;20215;-79
2021/09/21 09:47:31;;;;;;;6.80;4.13;;;15.60;99.90;;;;;;4140898;28;20282;-79
2021/09/21 09:49:36;;;;;;;5.93;4.00;;;15.60;99.90;;;;;;4143587;28;20543;-79
2021/09/21 09:51:45;;;;;;;7.77;4.47;;;15.60;99.90;;;;;;4141593;28;20924;-79
2021/09/21 09:53:49;;;;;;;9.50;5.70;;;15.70;99.90;;;;;;4141090;28;20619;-80
2021/09/21 09:55:53;;;;;;;7.60;5.37;;;15.80;99.90;;;;;;4139172;28;20220;-79
2021/09/21 09:57:55;;;;;;;7.17;4.83;;;15.90;99.90;;;;;;4143676;28;20228;-79
2021/09/21 09:59:58;;;;;;;6.70;4.10;;;16.00;99.90;;;;;;4140814;28;20262;-80
2021/09/21 10:02:00;;;;;;;6.03;3.97;;;16.00;99.90;;;;;;4141411;28;20212;-79
2021/09/21 10:04:02;;;;;;;6.33;3.97;;;16.10;99.90;;;;;;4143397;28;20310;-78
2021/09/21 10:06:05;;;;;;;6.63;4.17;;;16.10;99.90;;;;;;4143535;28;20208;-79
2021/09/21 10:08:08;;;;;;;8.57;4.27;;;16.10;99.90;;;;;;4143609;28;20258;-79
2021/09/21 10:10:11;;;;;;;6.90;4.10;;;16.20;99.90;;;;;;4141743;28;20207;-78
2021/09/21 10:12:13;;;;;;;6.33;3.83;;;16.30;99.90;;;;;;4141405;28;20212;-79
2021/09/21 10:14:19;;;;;;;7.70;4.50;;;16.40;99.90;;;;;;4140280;28;20231;-79
2021/09/21 10:16:22;;;;;;;8.80;4.07;;;16.60;99.90;;;;;;4143036;28;20350;-79
2021/09/21 10:18:25;;;;;;;8.57;4.70;;;16.70;99.90;;;;;;4141798;28;20287;-79
2021/09/21 10:20:33;;;;;;;9.07;3.90;;;16.80;99.90;;;;;;4142128;28;20213;-78
2021/09/21 10:22:36;;;;;;;6.57;3.20;;;16.80;99.90;;;;;;4137658;28;20267;-78
2021/09/21 10:24:42;;;;;;;5.67;2.90;;;16.80;98.50;;;;;;4141247;28;20653;-78
2021/09/21 10:26:45;;;;;;;6.73;3.40;;;16.80;98.50;;;;;;4142407;28;20252;-78
2021/09/21 10:28:48;;;;;;;5.80;3.30;;;16.70;98.60;;;;;;4138771;28;20275;-78
2021/09/21 10:30:54;;;;;;;4.87;2.80;;;16.60;97.30;;;;;;4142383;28;20729;-78
2021/09/21 10:32:58;;;;;;;5.77;2.80;;;16.50;98.10;;;;;;4141240;28;20263;-78
2021/09/21 10:35:10;;;;;;;4.77;2.90;;;16.40;97.00;;;;;;4138654;28;20569;-78
2021/09/21 10:37:13;;;;;;;4.10;2.30;;;16.20;97.60;;;;;;4134931;28;20217;-78
2021/09/21 10:39:17;;;;;;;4.43;2.60;;;16.10;98.00;;;;;;4139826;28;20225;-78
2021/09/21 10:41:19;;;;;;;7.83;2.50;;;16.10;98.80;;;;;;4143398;28;20680;-78